sensor_id;sensor_type;location;lat;lon;timestamp;pressure;altitude;pressure_sealevel;temperature;humidity
17054;BME280;8643;48.824;11.422;2023-01-28T00:00:12;97351.78;;;-1.64;100.00
17054;BME280;8643;48.824;11.422;2023-01-28T00:02:41;97352.25;;;-1.67;100.00
17054;BME280;8643;48.824;11.422;2023-01-28T00:05:10;97358.03;;;-1.75;100.00
17054;BME280;8643;48.824;11.422;2023-01-28T00:07:39;97354.06;;;-1.73;100.00
17054;BME280;8643;48.824;11.422;2023-01-28T00:10:09;97349.00;;;-1.69;100.00
17054;BME280;8643;48.824;11.422;2023-01-28T00:12:39;97348.94;;;-1.74;100.00
17054;BME280;8643;48.824;11.422;2023-01-28T00:15:08;97354.06;;;-1.73;100.00
17054;BME280;8643;48.824;11.422;2023-01-28T00:17:38;97359.06;;;-1.76;100.00
17054;BME280;8643;48.824;11.422;2023-01-28T00:20:08;97354.69;;;-1.82;100.00
17054;BME280;8643;48.824;11.422;2023-01-28T00:22:37;97352.72;;;-1.87;100.00
17054;BME280;8643;48.824;11.422;2023-01-28T00:25:06;97352.91;;;-1.77;100.00
17054;BME280;8643;48.824;11.422;2023-01-28T00:27:35;97357.22;;;-1.76;100.00
17054;BME280;8643;48.824;11.422;2023-01-28T00:30:06;97355.66;;;-1.72;100.00
17054;BME280;8643;48.824;11.422;2023-01-28T00:32:36;97357.47;;;-1.77;100.00
17054;BME280;8643;48.824;11.422;2023-01-28T00:35:05;97362.59;;;-1.76;100.00
17054;BME280;8643;48.824;11.422;2023-01-28T00:37:34;97360.72;;;-1.75;100.00
17054;BME280;8643;48.824;11.422;2023-01-28T00:40:05;97365.13;;;-1.69;100.00
17054;BME280;8643;48.824;11.422;2023-01-28T00:42:36;97354.38;;;-1.69;100.00
17054;BME280;8643;48.824;11.422;2023-01-28T00:45:07;97364.44;;;-1.76;100.00
17054;BME280;8643;48.824;11.422;2023-01-28T00:47:36;97361.34;;;-1.68;100.00
17054;BME280;8643;48.824;11.422;2023-01-28T00:50:05;97360.16;;;-1.60;100.00
17054;BME280;8643;48.824;11.422;2023-01-28T00:52:34;97363.31;;;-1.63;100.00
17054;BME280;8643;48.824;11.422;2023-01-28T00:55:03;97360.31;;;-1.67;100.00
17054;BME280;8643;48.824;11.422;2023-01-28T00:57:32;97367.47;;;-1.73;100.00
17054;BME280;8643;48.824;11.422;2023-01-28T01:00:00;97367.81;;;-1.69;100.00
17054;BME280;8643;48.824;11.422;2023-01-28T01:02:31;97365.94;;;-1.69;100.00
17054;BME280;8643;48.824;11.422;2023-01-28T01:05:00;97368.38;;;-1.67;100.00
17054;BME280;8643;48.824;11.422;2023-01-28T01:07:30;97365.03;;;-1.74;100.00
17054;BME280;8643;48.824;11.422;2023-01-28T01:10:10;97367.47;;;-1.73;100.00
17054;BME280;8643;48.824;11.422;2023-01-28T01:12:40;97371.22;;;-1.74;100.00
17054;BME280;8643;48.824;11.422;2023-01-28T01:15:10;97360.38;;;-1.79;100.00
17054;BME280;8643;48.824;11.422;2023-01-28T01:17:44;97372.84;;;-1.73;100.00
17054;BME280;8643;48.824;11.422;2023-01-28T01:20:16;97371.22;;;-1.74;100.00
17054;BME280;8643;48.824;11.422;2023-01-28T01:22:45;97364.69;;;-1.78;100.00
17054;BME280;8643;48.824;11.422;2023-01-28T01:25:15;97371.69;;;-1.77;100.00
17054;BME280;8643;48.824;11.422;2023-01-28T01:27:47;97368.91;;;-1.82;100.00
17054;BME280;8643;48.824;11.422;2023-01-28T01:30:17;97375.66;;;-1.79;100.00
17054;BME280;8643;48.824;11.422;2023-01-28T01:32:48;97380.78;;;-1.78;100.00
17054;BME280;8643;48.824;11.422;2023-01-28T01:35:17;97378.69;;;-1.76;100.00
17054;BME280;8643;48.824;11.422;2023-01-28T01:37:45;97385.13;;;-1.77;100.00
17054;BME280;8643;48.824;11.422;2023-01-28T01:40:13;97387.81;;;-1.77;100.00
17054;BME280;8643;48.824;11.422;2023-01-28T01:42:42;97379.97;;;-1.78;100.00
17054;BME280;8643;48.824;11.422;2023-01-28T01:45:13;97385.03;;;-1.82;100.00
17054;BME280;8643;48.824;11.422;2023-01-28T01:47:53;97386.75;;;-1.76;100.00
17054;BME280;8643;48.824;11.422;2023-01-28T01:50:28;97389.44;;;-1.76;100.00
17054;BME280;8643;48.824;11.422;2023-01-28T01:53:03;97387.00;;;-1.77;100.00
17054;BME280;8643;48.824;11.422;2023-01-28T01:55:37;97383.81;;;-1.74;100.00
17054;BME280;8643;48.824;11.422;2023-01-28T01:58:11;97382.50;;;-1.72;100.00
17054;BME280;8643;48.824;11.422;2023-01-28T02:00:42;97385.75;;;-1.70;100.00
17054;BME280;8643;48.824;11.422;2023-01-28T02:03:13;97385.75;;;-1.70;100.00
17054;BME280;8643;48.824;11.422;2023-01-28T02:05:44;97387.06;;;-1.72;100.00
17054;BME280;8643;48.824;11.422;2023-01-28T02:08:12;97384.25;;;-1.66;100.00
17054;BME280;8643;48.824;11.422;2023-01-28T02:10:57;97388.97;;;-1.73;100.00
17054;BME280;8643;48.824;11.422;2023-01-28T02:13:35;97380.56;;;-1.76;100.00
17054;BME280;8643;48.824;11.422;2023-01-28T02:16:07;97396.91;;;-1.78;100.00
17054;BME280;8643;48.824;11.422;2023-01-28T02:18:38;97392.94;;;-1.75;100.00
17054;BME280;8643;48.824;11.422;2023-01-28T02:21:41;97392.38;;;-1.77;100.00
17054;BME280;8643;48.824;11.422;2023-01-28T02:25:04;97402.88;;;-1.76;100.00
17054;BME280;8643;48.824;11.422;2023-01-28T02:28:05;97402.88;;;-1.76;100.00
17054;BME280;8643;48.824;11.422;2023-01-28T02:30:42;97400.75;;;-1.74;100.00
17054;BME280;8643;48.824;11.422;2023-01-28T02:33:23;97407.75;;;-1.73;100.00
17054;BME280;8643;48.824;11.422;2023-01-28T02:35:55;97404.81;;;-1.71;100.00
17054;BME280;8643;48.824;11.422;2023-01-28T02:38:28;97413.13;;;-1.73;100.00
17054;BME280;8643;48.824;11.422;2023-01-28T02:41:04;97410.44;;;-1.73;100.00
17054;BME280;8643;48.824;11.422;2023-01-28T02:43:40;97410.44;;;-1.73;100.00
17054;BME280;8643;48.824;11.422;2023-01-28T02:46:20;97416.63;;;-1.72;100.00
17054;BME280;8643;48.824;11.422;2023-01-28T02:49:13;97407.16;;;-1.75;100.00
17054;BME280;8643;48.824;11.422;2023-01-28T02:52:02;97411.00;;;-1.71;100.00
17054;BME280;8643;48.824;11.422;2023-01-28T02:54:47;97415.81;;;-1.73;100.00
17054;BME280;8643;48.824;11.422;2023-01-28T02:57:34;97410.28;;;-1.66;100.00
17054;BME280;8643;48.824;11.422;2023-01-28T03:00:12;97408.66;;;-1.67;100.00
17054;BME280;8643;48.824;11.422;2023-01-28T03:02:50;97412.63;;;-1.70;100.00
17054;BME280;8643;48.824;11.422;2023-01-28T03:05:26;97410.28;;;-1.66;100.00
17054;BME280;8643;48.824;11.422;2023-01-28T03:07:58;97416.28;;;-1.76;100.00
17054;BME280;8643;48.824;11.422;2023-01-28T03:10:27;97408.22;;;-1.76;100.00
17054;BME280;8643;48.824;11.422;2023-01-28T03:12:57;97416.28;;;-1.76;100.00
17054;BME280;8643;48.824;11.422;2023-01-28T03:15:47;97413.13;;;-1.73;100.00
17054;BME280;8643;48.824;11.422;2023-01-28T03:18:40;97413.38;;;-1.74;100.00
17054;BME280;8643;48.824;11.422;2023-01-28T03:21:32;97409.28;;;-1.77;100.00
17054;BME280;8643;48.824;11.422;2023-01-28T03:24:23;97410.44;;;-1.73;100.00
17054;BME280;8643;48.824;11.422;2023-01-28T03:27:17;97419.44;;;-1.79;100.00
17054;BME280;8643;48.824;11.422;2023-01-28T03:30:13;97419.44;;;-1.79;100.00
17054;BME280;8643;48.824;11.422;2023-01-28T03:33:09;97425.72;;;-1.73;100.00
17054;BME280;8643;48.824;11.422;2023-01-28T03:35:56;97424.75;;;-1.67;100.00
17054;BME280;8643;48.824;11.422;2023-01-28T03:38:42;97427.34;;;-1.72;100.00
17054;BME280;8643;48.824;11.422;2023-01-28T03:41:21;97421.31;;;-1.79;100.00
17054;BME280;8643;48.824;11.422;2023-01-28T03:43:53;97425.38;;;-1.77;100.00
17054;BME280;8643;48.824;11.422;2023-01-28T03:46:22;97431.22;;;-1.80;100.00
17054;BME280;8643;48.824;11.422;2023-01-28T03:48:52;97433.34;;;-1.82;100.00
17054;BME280;8643;48.824;11.422;2023-01-28T03:51:21;97433.59;;;-1.83;100.00
17054;BME280;8643;48.824;11.422;2023-01-28T03:53:49;97435.59;;;-1.91;100.00
17054;BME280;8643;48.824;11.422;2023-01-28T03:56:21;97429.97;;;-1.89;100.00
17054;BME280;8643;48.824;11.422;2023-01-28T03:58:52;97435.84;;;-1.92;100.00
17054;BME280;8643;48.824;11.422;2023-01-28T04:01:23;97437.94;;;-1.94;100.00
17054;BME280;8643;48.824;11.422;2023-01-28T04:03:53;97434.44;;;-1.95;100.00
17054;BME280;8643;48.824;11.422;2023-01-28T04:06:25;97438.53;;;-1.92;100.00
17054;BME280;8643;48.824;11.422;2023-01-28T04:09:13;97434.22;;;-1.93;100.00
17054;BME280;8643;48.824;11.422;2023-01-28T04:12:15;97434.78;;;-1.91;100.00
17054;BME280;8643;48.824;11.422;2023-01-28T04:14:48;97447.16;;;-1.90;100.00
17054;BME280;8643;48.824;11.422;2023-01-28T04:17:25;97452.06;;;-1.87;100.00
17054;BME280;8643;48.824;11.422;2023-01-28T04:19:54;97451.81;;;-1.86;100.00
17054;BME280;8643;48.824;11.422;2023-01-28T04:22:24;97445.38;;;-1.85;100.00
17054;BME280;8643;48.824;11.422;2023-01-28T04:24:52;97450.75;;;-1.85;100.00
17054;BME280;8643;48.824;11.422;2023-01-28T04:27:22;97454.50;;;-1.86;100.00
17054;BME280;8643;48.824;11.422;2023-01-28T04:29:50;97454.59;;;-1.80;100.00
17054;BME280;8643;48.824;11.422;2023-01-28T04:32:36;97447.34;;;-1.80;100.00
17054;BME280;8643;48.824;11.422;2023-01-28T04:35:33;97455.97;;;-1.78;100.00
17054;BME280;8643;48.824;11.422;2023-01-28T04:38:06;97450.25;;;-1.81;100.00
17054;BME280;8643;48.824;11.422;2023-01-28T04:40:44;97458.78;;;-1.85;100.00
17054;BME280;8643;48.824;11.422;2023-01-28T04:43:24;97450.16;;;-1.87;100.00
17054;BME280;8643;48.824;11.422;2023-01-28T04:46:08;97463.03;;;-1.89;100.00
17054;BME280;8643;48.824;11.422;2023-01-28T04:49:03;97462.19;;;-1.89;100.00
17054;BME280;8643;48.824;11.422;2023-01-28T04:51:51;97468.16;;;-1.87;100.00
17054;BME280;8643;48.824;11.422;2023-01-28T04:54:41;97468.31;;;-1.94;100.00
17054;BME280;8643;48.824;11.422;2023-01-28T04:57:10;97467.78;;;-1.91;100.00
17054;BME280;8643;48.824;11.422;2023-01-28T04:59:39;97465.38;;;-1.92;100.00
17054;BME280;8643;48.824;11.422;2023-01-28T05:02:08;97467.47;;;-1.94;100.00
17054;BME280;8643;48.824;11.422;2023-01-28T05:04:37;97467.47;;;-1.94;100.00
17054;BME280;8643;48.824;11.422;2023-01-28T05:07:09;97474.13;;;-1.97;100.00
17054;BME280;8643;48.824;11.422;2023-01-28T05:09:37;97470.63;;;-1.97;100.00
17054;BME280;8643;48.824;11.422;2023-01-28T05:12:07;97478.19;;;-1.94;100.00
17054;BME280;8643;48.824;11.422;2023-01-28T05:14:37;97477.41;;;-1.95;100.00
17054;BME280;8643;48.824;11.422;2023-01-28T05:17:10;97476.34;;;-1.94;100.00
17054;BME280;8643;48.824;11.422;2023-01-28T05:19:39;97480.06;;;-1.95;100.00
17054;BME280;8643;48.824;11.422;2023-01-28T05:22:16;97471.22;;;-1.95;100.00
17054;BME280;8643;48.824;11.422;2023-01-28T05:25:09;97483.09;;;-1.91;100.00
17054;BME280;8643;48.824;11.422;2023-01-28T05:27:38;97483.56;;;-1.94;100.00
17054;BME280;8643;48.824;11.422;2023-01-28T05:30:08;97476.59;;;-1.95;100.00
17054;BME280;8643;48.824;11.422;2023-01-28T05:32:37;97484.63;;;-1.95;100.00
17054;BME280;8643;48.824;11.422;2023-01-28T05:35:09;97477.41;;;-1.95;100.00
17054;BME280;8643;48.824;11.422;2023-01-28T05:37:39;97480.97;;;-1.89;100.00
17054;BME280;8643;48.824;11.422;2023-01-28T05:40:09;97474.34;;;-1.87;100.00
17054;BME280;8643;48.824;11.422;2023-01-28T05:42:38;97475.75;;;-1.84;100.00
17054;BME280;8643;48.824;11.422;2023-01-28T05:45:20;97482.16;;;-1.85;100.00
17054;BME280;8643;48.824;11.422;2023-01-28T05:48:07;97475.13;;;-1.86;100.00
17054;BME280;8643;48.824;11.422;2023-01-28T05:51:05;97477.59;;;-1.85;100.00
17054;BME280;8643;48.824;11.422;2023-01-28T05:53:37;97480.50;;;-1.86;100.00
17054;BME280;8643;48.824;11.422;2023-01-28T05:56:07;97482.06;;;-1.90;100.00
17054;BME280;8643;48.824;11.422;2023-01-28T05:58:37;97486.47;;;-1.84;100.00
17054;BME280;8643;48.824;11.422;2023-01-28T06:01:06;97487.28;;;-1.83;100.00
17054;BME280;8643;48.824;11.422;2023-01-28T06:03:39;97484.75;;;-1.90;100.00
17054;BME280;8643;48.824;11.422;2023-01-28T06:06:08;97481.22;;;-1.91;100.00
17054;BME280;8643;48.824;11.422;2023-01-28T06:08:38;97489.88;;;-1.89;100.00
17054;BME280;8643;48.824;11.422;2023-01-28T06:11:08;97495.47;;;-1.90;100.00
17054;BME280;8643;48.824;11.422;2023-01-28T06:13:36;97499.19;;;-1.91;100.00
17054;BME280;8643;48.824;11.422;2023-01-28T06:16:24;97500.59;;;-1.89;100.00
17054;BME280;8643;48.824;11.422;2023-01-28T06:19:19;97511.69;;;-1.85;100.00
17054;BME280;8643;48.824;11.422;2023-01-28T06:21:47;97513.56;;;-1.86;100.00
17054;BME280;8643;48.824;11.422;2023-01-28T06:24:19;97506.06;;;-1.83;100.00
17054;BME280;8643;48.824;11.422;2023-01-28T06:26:48;97511.78;;;-1.80;100.00
17054;BME280;8643;48.824;11.422;2023-01-28T06:29:17;97525.19;;;-1.80;100.00
17054;BME280;8643;48.824;11.422;2023-01-28T06:31:45;97524.63;;;-1.82;100.00
17054;BME280;8643;48.824;11.422;2023-01-28T06:34:13;97524.97;;;-1.78;100.00
17054;BME280;8643;48.824;11.422;2023-01-28T06:36:42;97529.28;;;-1.77;100.00
17054;BME280;8643;48.824;11.422;2023-01-28T06:39:11;97530.66;;;-1.75;100.00
17054;BME280;8643;48.824;11.422;2023-01-28T06:41:41;97532.78;;;-1.77;100.00
17054;BME280;8643;48.824;11.422;2023-01-28T06:44:09;97540.59;;;-1.75;100.00
17054;BME280;8643;48.824;11.422;2023-01-28T06:46:39;97536.88;;;-1.74;100.00
17054;BME280;8643;48.824;11.422;2023-01-28T06:49:07;97538.72;;;-1.75;100.00
17054;BME280;8643;48.824;11.422;2023-01-28T06:51:36;97538.16;;;-1.77;100.00
17054;BME280;8643;48.824;11.422;2023-01-28T06:54:05;97542.25;;;-1.74;100.00
17054;BME280;8643;48.824;11.422;2023-01-28T06:56:33;97543.06;;;-1.74;100.00
17054;BME280;8643;48.824;11.422;2023-01-28T06:59:04;97546.88;;;-1.70;100.00
17054;BME280;8643;48.824;11.422;2023-01-28T07:01:33;97546.88;;;-1.70;100.00
17054;BME280;8643;48.824;11.422;2023-01-28T07:04:05;97549.00;;;-1.72;100.00
17054;BME280;8643;48.824;11.422;2023-01-28T07:06:36;97552.25;;;-1.70;100.00
17054;BME280;8643;48.824;11.422;2023-01-28T07:09:05;97556.00;;;-1.71;100.00
17054;BME280;8643;48.824;11.422;2023-01-28T07:11:33;97553.31;;;-1.71;100.00
17054;BME280;8643;48.824;11.422;2023-01-28T07:14:03;97558.94;;;-1.72;100.00
17054;BME280;8643;48.824;11.422;2023-01-28T07:16:32;97550.88;;;-1.72;100.00
17054;BME280;8643;48.824;11.422;2023-01-28T07:19:00;97566.28;;;-1.68;100.00
17054;BME280;8643;48.824;11.422;2023-01-28T07:21:29;97565.81;;;-1.64;100.00
17054;BME280;8643;48.824;11.422;2023-01-28T07:23:57;97566.94;;;-1.60;100.00
17054;BME280;8643;48.824;11.422;2023-01-28T07:26:26;97575.25;;;-1.62;100.00
17054;BME280;8643;48.824;11.422;2023-01-28T07:28:54;97573.34;;;-1.61;100.00
17054;BME280;8643;48.824;11.422;2023-01-28T07:31:24;97575.47;;;-1.63;100.00
17054;BME280;8643;48.824;11.422;2023-01-28T07:33:52;97573.50;;;-1.68;100.00
17054;BME280;8643;48.824;11.422;2023-01-28T07:36:21;97585.88;;;-1.67;100.00
17054;BME280;8643;48.824;11.422;2023-01-28T07:38:50;97579.69;;;-1.68;100.00
17054;BME280;8643;48.824;11.422;2023-01-28T07:41:18;97585.31;;;-1.69;100.00
17054;BME280;8643;48.824;11.422;2023-01-28T07:43:47;97588.31;;;-1.66;100.00
17054;BME280;8643;48.824;11.422;2023-01-28T07:46:16;97584.47;;;-1.58;100.00
17054;BME280;8643;48.824;11.422;2023-01-28T07:48:46;97589.13;;;-1.53;100.00
17054;BME280;8643;48.824;11.422;2023-01-28T07:51:14;97591.81;;;-1.53;100.00
17054;BME280;8643;48.824;11.422;2023-01-28T07:53:43;97593.75;;;-1.49;100.00
17054;BME280;8643;48.824;11.422;2023-01-28T07:56:11;97598.75;;;-1.40;100.00
17054;BME280;8643;48.824;11.422;2023-01-28T07:58:39;97600.97;;;-1.37;100.00
17054;BME280;8643;48.824;11.422;2023-01-28T08:01:08;97601.81;;;-1.37;100.00
17054;BME280;8643;48.824;11.422;2023-01-28T08:03:36;97604.59;;;-1.32;100.00
17054;BME280;8643;48.824;11.422;2023-01-28T08:06:06;97605.63;;;-1.33;100.00
17054;BME280;8643;48.824;11.422;2023-01-28T08:08:35;97609.50;;;-1.28;100.00
17054;BME280;8643;48.824;11.422;2023-01-28T08:11:07;97613.13;;;-1.35;100.00
17054;BME280;8643;48.824;11.422;2023-01-28T08:13:36;97616.38;;;-1.33;100.00
17054;BME280;8643;48.824;11.422;2023-01-28T08:16:07;97613.22;;;-1.30;100.00
17054;BME280;8643;48.824;11.422;2023-01-28T08:18:38;97615.91;;;-1.30;100.00
17054;BME280;8643;48.824;11.422;2023-01-28T08:21:08;97611.81;;;-1.20;100.00
17054;BME280;8643;48.824;11.422;2023-01-28T08:23:36;97621.00;;;-1.16;100.00
17054;BME280;8643;48.824;11.422;2023-01-28T08:26:08;97627.53;;;-1.12;100.00
17054;BME280;8643;48.824;11.422;2023-01-28T08:28:37;97635.31;;;-0.99;100.00
17054;BME280;8643;48.824;11.422;2023-01-28T08:31:06;97633.00;;;-1.07;100.00
17054;BME280;8643;48.824;11.422;2023-01-28T08:33:35;97628.91;;;-0.98;100.00
17054;BME280;8643;48.824;11.422;2023-01-28T08:36:05;97629.06;;;-0.87;100.00
17054;BME280;8643;48.824;11.422;2023-01-28T08:38:35;97630.22;;;-0.83;100.00
17054;BME280;8643;48.824;11.422;2023-01-28T08:41:03;97626.47;;;-0.82;100.00
17054;BME280;8643;48.824;11.422;2023-01-28T08:43:32;97625.19;;;-0.80;100.00
17054;BME280;8643;48.824;11.422;2023-01-28T08:46:00;97622.50;;;-0.80;100.00
17054;BME280;8643;48.824;11.422;2023-01-28T08:48:28;97623.47;;;-0.86;100.00
17054;BME280;8643;48.824;11.422;2023-01-28T08:50:58;97615.97;;;-0.84;100.00
17054;BME280;8643;48.824;11.422;2023-01-28T08:53:26;97627.25;;;-0.70;100.00
17054;BME280;8643;48.824;11.422;2023-01-28T08:55:56;97628.22;;;-0.59;100.00
17054;BME280;8643;48.824;11.422;2023-01-28T08:58:24;97622.13;;;-0.54;100.00
17054;BME280;8643;48.824;11.422;2023-01-28T09:00:53;97627.97;;;-0.58;100.00
17054;BME280;8643;48.824;11.422;2023-01-28T09:03:22;97626.38;;;-0.59;100.00
17054;BME280;8643;48.824;11.422;2023-01-28T09:05:50;97625.38;;;-0.52;100.00
17054;BME280;8643;48.824;11.422;2023-01-28T09:08:18;97623.03;;;-0.49;100.00
17054;BME280;8643;48.824;11.422;2023-01-28T09:10:47;97618.13;;;-0.35;100.00
17054;BME280;8643;48.824;11.422;2023-01-28T09:13:16;97625.88;;;-0.39;100.00
17054;BME280;8643;48.824;11.422;2023-01-28T09:15:45;97627.13;;;-0.29;100.00
17054;BME280;8643;48.824;11.422;2023-01-28T09:18:13;97632.75;;;-0.31;100.00
17054;BME280;8643;48.824;11.422;2023-01-28T09:20:42;97637.94;;;-0.41;100.00
17054;BME280;8643;48.824;11.422;2023-01-28T09:23:14;97646.50;;;-0.44;100.00
17054;BME280;8643;48.824;11.422;2023-01-28T09:25:42;97646.91;;;-0.52;100.00
17054;BME280;8643;48.824;11.422;2023-01-28T09:28:11;97640.31;;;-0.45;100.00
17054;BME280;8643;48.824;11.422;2023-01-28T09:30:40;97643.91;;;-0.39;100.00
17054;BME280;8643;48.824;11.422;2023-01-28T09:33:09;97645.94;;;-0.46;100.00
17054;BME280;8643;48.824;11.422;2023-01-28T09:35:37;97651.38;;;-0.41;100.00
17054;BME280;8643;48.824;11.422;2023-01-28T09:38:06;97646.31;;;-0.54;100.00
17054;BME280;8643;48.824;11.422;2023-01-28T09:40:39;97649.91;;;-0.66;100.00
17054;BME280;8643;48.824;11.422;2023-01-28T09:43:45;97648.75;;;-0.70;100.00
17054;BME280;8643;48.824;11.422;2023-01-28T09:46:19;97643.41;;;-0.53;100.00
17054;BME280;8643;48.824;11.422;2023-01-28T09:48:51;97653.69;;;-0.50;100.00
17054;BME280;8643;48.824;11.422;2023-01-28T09:51:31;97654.22;;;-0.65;100.00
17054;BME280;8643;48.824;11.422;2023-01-28T09:54:05;97657.47;;;-0.63;100.00
17054;BME280;8643;48.824;11.422;2023-01-28T09:56:42;97652.81;;;-0.67;100.00
17054;BME280;8643;48.824;11.422;2023-01-28T09:59:19;97649.97;;;-0.61;100.00
17054;BME280;8643;48.824;11.422;2023-01-28T10:01:56;97651.56;;;-0.48;100.00
17054;BME280;8643;48.824;11.422;2023-01-28T10:04:46;97650.75;;;-0.31;100.00
17054;BME280;8643;48.824;11.422;2023-01-28T10:07:34;97644.00;;;-0.34;100.00
17054;BME280;8643;48.824;11.422;2023-01-28T10:10:11;97651.88;;;-0.44;100.00
17054;BME280;8643;48.824;11.422;2023-01-28T10:13:04;97644.03;;;-0.46;100.00
17054;BME280;8643;48.824;11.422;2023-01-28T10:16:04;97649.28;;;-0.39;100.00
17054;BME280;8643;48.824;11.422;2023-01-28T10:18:42;97646.50;;;-0.44;100.00
17054;BME280;8643;48.824;11.422;2023-01-28T10:21:20;97649.19;;;-0.44;100.00
17054;BME280;8643;48.824;11.422;2023-01-28T10:23:59;97651.72;;;-0.38;100.00
17054;BME280;8643;48.824;11.422;2023-01-28T10:26:34;97653.75;;;-0.28;100.00
17054;BME280;8643;48.824;11.422;2023-01-28T10:29:12;97652.94;;;-0.28;100.00
17054;BME280;8643;48.824;11.422;2023-01-28T10:31:51;97649.22;;;-0.27;100.00
17054;BME280;8643;48.824;11.422;2023-01-28T10:34:21;97647.41;;;-0.22;100.00
17054;BME280;8643;48.824;11.422;2023-01-28T10:36:50;97653.69;;;-0.33;100.00
17054;BME280;8643;48.824;11.422;2023-01-28T10:39:21;97650.09;;;-0.39;100.00
17054;BME280;8643;48.824;11.422;2023-01-28T10:41:51;97660.69;;;-0.49;100.00
17054;BME280;8643;48.824;11.422;2023-01-28T10:44:33;97660.34;;;-0.52;100.00
17054;BME280;8643;48.824;11.422;2023-01-28T10:47:18;97657.09;;;-0.54;100.00
17054;BME280;8643;48.824;11.422;2023-01-28T10:49:55;97663.28;;;-0.54;100.00
17054;BME280;8643;48.824;11.422;2023-01-28T10:52:25;97654.81;;;-0.46;100.00
17054;BME280;8643;48.824;11.422;2023-01-28T10:55:01;97658.34;;;-0.45;100.00
17054;BME280;8643;48.824;11.422;2023-01-28T10:57:33;97657.75;;;-0.47;100.00
17054;BME280;8643;48.824;11.422;2023-01-28T11:00:21;97657.44;;;-0.34;100.00
17054;BME280;8643;48.824;11.422;2023-01-28T11:02:51;97651.16;;;-0.40;100.00
17054;BME280;8643;48.824;11.422;2023-01-28T11:05:23;97650.03;;;-0.27;100.00
17054;BME280;8643;48.824;11.422;2023-01-28T11:08:12;97643.97;;;-0.17;100.00
17054;BME280;8643;48.824;11.422;2023-01-28T11:10:43;97648.47;;;-0.23;100.00
17054;BME280;8643;48.824;11.422;2023-01-28T11:13:17;97640.56;;;-0.12;100.00
17054;BME280;8643;48.824;11.422;2023-01-28T11:15:48;97643.25;;;-0.12;100.00
17054;BME280;8643;48.824;11.422;2023-01-28T11:18:22;97644.13;;;-0.07;100.00
17054;BME280;8643;48.824;11.422;2023-01-28T11:20:56;97644.88;;;0.06;100.00
17054;BME280;8643;48.824;11.422;2023-01-28T11:23:30;97635.56;;;0.13;100.00
17054;BME280;8643;48.824;11.422;2023-01-28T11:26:05;97639.63;;;0.16;100.00
17054;BME280;8643;48.824;11.422;2023-01-28T11:28:39;97641.75;;;0.14;100.00
17054;BME280;8643;48.824;11.422;2023-01-28T11:31:11;97652.56;;;-0.03;100.00
17054;BME280;8643;48.824;11.422;2023-01-28T11:33:47;97646.41;;;0.02;100.00
17054;BME280;8643;48.824;11.422;2023-01-28T11:36:20;97643.88;;;0.12;100.00
17054;BME280;8643;48.824;11.422;2023-01-28T11:38:53;97636.38;;;0.14;100.00
17054;BME280;8643;48.824;11.422;2023-01-28T11:41:27;97640.94;;;0.13;100.00
17054;BME280;8643;48.824;11.422;2023-01-28T11:43:59;97650.81;;;0.08;100.00
17054;BME280;8643;48.824;11.422;2023-01-28T11:46:51;97644.47;;;-0.03;100.00
17054;BME280;8643;48.824;11.422;2023-01-28T11:49:37;97652.72;;;-0.10;100.00
17054;BME280;8643;48.824;11.422;2023-01-28T11:52:20;97646.81;;;0.10;100.00
17054;BME280;8643;48.824;11.422;2023-01-28T11:55:16;97648.28;;;0.01;100.00
17054;BME280;8643;48.824;11.422;2023-01-28T11:58:00;97644.69;;;0.12;100.00
17054;BME280;8643;48.824;11.422;2023-01-28T12:00:41;97647.72;;;-0.01;100.00
17054;BME280;8643;48.824;11.422;2023-01-28T12:03:45;97638.19;;;-0.09;100.00
17054;BME280;8643;48.824;11.422;2023-01-28T12:06:38;97639.91;;;-0.03;100.00
17054;BME280;8643;48.824;11.422;2023-01-28T12:09:24;97640.94;;;-0.04;100.00
17054;BME280;8643;48.824;11.422;2023-01-28T12:12:13;97642.09;;;0.01;100.00
17054;BME280;8643;48.824;11.422;2023-01-28T12:15:19;97643.56;;;0.08;100.00
17054;BME280;8643;48.824;11.422;2023-01-28T12:18:10;97638.81;;;0.15;100.00
17054;BME280;8643;48.824;11.422;2023-01-28T12:20:51;97640.13;;;0.13;100.00
17054;BME280;8643;48.824;11.422;2023-01-28T12:23:36;97640.16;;;-0.04;100.00
17054;BME280;8643;48.824;11.422;2023-01-28T12:26:16;97636.66;;;-0.05;100.00
17054;BME280;8643;48.824;11.422;2023-01-28T12:28:58;97633.38;;;-0.07;100.00
17054;BME280;8643;48.824;11.422;2023-01-28T12:35:27;97635.34;;;-0.19;100.00
17054;BME280;8643;48.824;11.422;2023-01-28T12:38:13;97626.59;;;-0.26;100.00
17054;BME280;8643;48.824;11.422;2023-01-28T12:40:55;97633.13;;;-0.22;100.00
17054;BME280;8643;48.824;11.422;2023-01-28T12:43:42;97629.78;;;-0.12;100.00
17054;BME280;8643;48.824;11.422;2023-01-28T12:46:26;97625.28;;;-0.07;100.00
17054;BME280;8643;48.824;11.422;2023-01-28T12:49:02;97624.06;;;0.01;100.00
17054;BME280;8643;48.824;11.422;2023-01-28T12:51:46;97627.59;;;-0.15;100.00
17054;BME280;8643;48.824;11.422;2023-01-28T12:54:25;97627.44;;;-0.26;100.00
17054;BME280;8643;48.824;11.422;2023-01-28T12:56:56;97629.06;;;-0.25;100.00
17054;BME280;8643;48.824;11.422;2023-01-28T12:59:33;97631.00;;;-0.20;100.00
17054;BME280;8643;48.824;11.422;2023-01-28T13:02:22;97626.28;;;-0.30;100.00
17054;BME280;8643;48.824;11.422;2023-01-28T13:05:03;97627.13;;;-0.29;100.00
17054;BME280;8643;48.824;11.422;2023-01-28T13:07:39;97614.72;;;-0.30;100.00
17054;BME280;8643;48.824;11.422;2023-01-28T13:10:18;97627.34;;;-0.31;100.00
17054;BME280;8643;48.824;11.422;2023-01-28T13:12:52;97628.72;;;-0.28;100.00
17054;BME280;8643;48.824;11.422;2023-01-28T13:15:23;97627.94;;;-0.29;100.00
17054;BME280;8643;48.824;11.422;2023-01-28T13:17:57;97626.53;;;-0.31;100.00
17054;BME280;8643;48.824;11.422;2023-01-28T13:20:36;97632.16;;;-0.33;100.00
17054;BME280;8643;48.824;11.422;2023-01-28T13:23:23;97628.72;;;-0.28;100.00
17054;BME280;8643;48.824;11.422;2023-01-28T13:25:53;97630.84;;;-0.30;100.00
17054;BME280;8643;48.824;11.422;2023-01-28T13:28:29;97630.44;;;-0.22;100.00
17054;BME280;8643;48.824;11.422;2023-01-28T13:31:06;97633.63;;;-0.25;100.00
17054;BME280;8643;48.824;11.422;2023-01-28T13:33:38;97633.53;;;-0.30;100.00